createdAt,value
2022-08-25T00:01:46.169Z,14.20
2022-08-25T00:04:15.615Z,14.20
2022-08-25T00:06:45.999Z,14.20
2022-08-25T00:09:13.470Z,14.20
2022-08-25T00:11:41.587Z,14.20
2022-08-25T00:14:12.788Z,14.20
2022-08-25T00:16:39.687Z,14.20
2022-08-25T00:19:15.699Z,14.20
2022-08-25T00:21:43.802Z,14.20
2022-08-25T00:24:11.690Z,14.10
2022-08-25T00:26:44.293Z,14.10
2022-08-25T00:29:11.487Z,14.10
2022-08-25T00:31:39.325Z,14.10
2022-08-25T00:34:17.058Z,14.10
2022-08-25T00:36:45.128Z,14.10
2022-08-25T00:39:11.960Z,14.10
2022-08-25T00:41:41.883Z,14.00
2022-08-25T00:44:11.563Z,14.00
2022-08-25T00:46:45.937Z,14.00
2022-08-25T00:49:25.469Z,14.00
2022-08-25T00:52:13.038Z,14.00
2022-08-25T00:55:08.084Z,14.00
2022-08-25T00:57:43.207Z,14.10
2022-08-25T01:00:19.407Z,14.10
2022-08-25T01:02:46.806Z,14.10
2022-08-25T01:05:14.040Z,14.20
2022-08-25T01:07:41.879Z,14.20
2022-08-25T01:10:13.522Z,14.20
2022-08-25T01:12:41.306Z,14.20
2022-08-25T01:15:10.691Z,14.20
2022-08-25T01:17:46.825Z,14.10
2022-08-25T01:20:14.784Z,14.10
2022-08-25T01:22:41.978Z,14.10
2022-08-25T01:25:23.110Z,14.10
2022-08-25T01:27:50.478Z,14.10
2022-08-25T01:30:17.915Z,14.10
2022-08-25T01:32:45.655Z,14.10
2022-08-25T01:35:13.036Z,14.10
2022-08-25T01:37:40.262Z,14.10
2022-08-25T01:40:08.040Z,14.10
2022-08-25T01:43:02.673Z,14.20
2022-08-25T01:45:30.062Z,14.10
2022-08-25T01:47:56.956Z,14.10
2022-08-25T01:50:23.847Z,14.10
2022-08-25T01:53:07.153Z,14.10
2022-08-25T01:55:51.752Z,14.10
2022-08-25T01:58:39.074Z,14.00
2022-08-25T02:01:11.786Z,14.00
2022-08-25T02:03:42.223Z,14.00
2022-08-25T02:06:12.827Z,14.00
2022-08-25T02:08:40.019Z,14.00
2022-08-25T02:11:11.912Z,13.90
2022-08-25T02:13:40.496Z,14.00
2022-08-25T02:16:09.684Z,14.00
2022-08-25T02:18:37.039Z,14.00
2022-08-25T02:21:04.274Z,14.00
2022-08-25T02:23:34.299Z,14.00
2022-08-25T02:26:01.303Z,14.10
2022-08-25T02:28:28.178Z,14.10
2022-08-25T02:31:00.134Z,14.10
2022-08-25T02:33:28.694Z,14.20
2022-08-25T02:35:59.346Z,14.20
2022-08-25T02:38:27.955Z,14.20
2022-08-25T02:40:56.882Z,14.20
2022-08-25T02:43:24.895Z,14.10
2022-08-25T02:45:56.467Z,14.00
2022-08-25T02:48:24.447Z,14.00
2022-08-25T02:50:52.834Z,14.00
2022-08-25T02:53:23.573Z,13.90
2022-08-25T02:55:50.606Z,13.90
2022-08-25T02:58:17.507Z,13.80
2022-08-25T03:00:45.996Z,13.80
2022-08-25T03:03:13.349Z,13.80
2022-08-25T03:05:40.427Z,13.80
2022-08-25T03:08:08.483Z,13.70
2022-08-25T03:10:35.573Z,13.80
2022-08-25T03:13:02.627Z,13.80
2022-08-25T03:15:30.541Z,13.70
2022-08-25T03:17:59.883Z,13.70
2022-08-25T03:20:27.917Z,13.70
2022-08-25T03:22:54.859Z,13.80
2022-08-25T03:25:40.286Z,13.80
2022-08-25T03:28:07.998Z,13.90
2022-08-25T03:30:35.634Z,13.90
2022-08-25T03:33:02.731Z,13.90
2022-08-25T03:35:30.136Z,13.90
2022-08-25T03:37:58.931Z,13.90
2022-08-25T03:40:26.376Z,13.80
2022-08-25T03:42:55.087Z,13.80
2022-08-25T03:45:22.707Z,13.80
2022-08-25T03:47:50.587Z,13.80
2022-08-25T03:50:19.995Z,13.80
2022-08-25T03:52:51.894Z,13.90
2022-08-25T03:55:18.807Z,13.90
2022-08-25T03:57:45.715Z,13.90
2022-08-25T04:00:13.157Z,13.90
2022-08-25T04:02:40.897Z,13.90
2022-08-25T04:05:09.579Z,14.00
2022-08-25T04:07:36.680Z,14.00
2022-08-25T04:10:08.042Z,14.00
2022-08-25T04:12:35.307Z,14.00
2022-08-25T04:15:04.130Z,14.00
2022-08-25T04:17:31.027Z,14.00
2022-08-25T04:19:58.171Z,14.00
2022-08-25T04:22:25.314Z,13.90
2022-08-25T04:24:55.699Z,14.00
2022-08-25T04:27:22.587Z,13.90
2022-08-25T04:29:49.426Z,13.90
2022-08-25T04:32:16.259Z,13.90
2022-08-25T04:34:43.498Z,13.90
2022-08-25T04:37:10.330Z,13.90
2022-08-25T04:39:37.286Z,13.90
2022-08-25T04:42:04.563Z,13.90
2022-08-25T04:44:32.052Z,13.90
2022-08-25T04:46:59.385Z,13.90
2022-08-25T04:49:26.999Z,13.90
2022-08-25T04:51:54.018Z,13.90
2022-08-25T04:54:23.617Z,13.90
2022-08-25T04:56:54.111Z,14.00
2022-08-25T04:59:21.690Z,14.00
2022-08-25T05:01:49.672Z,14.00
2022-08-25T05:04:28.238Z,14.00
2022-08-25T05:06:56.842Z,14.10
2022-08-25T05:09:25.205Z,14.10
2022-08-25T05:11:53.582Z,14.10
2022-08-25T05:14:25.617Z,14.10
2022-08-25T05:16:57.994Z,14.10
2022-08-25T05:19:25.318Z,14.10
2022-08-25T05:21:52.743Z,14.10
2022-08-25T05:24:20.181Z,14.10
2022-08-25T05:26:47.127Z,14.10
2022-08-25T05:29:14.458Z,14.10
2022-08-25T05:31:47.091Z,14.20
2022-08-25T05:34:18.760Z,14.20
2022-08-25T05:36:46.123Z,14.20
2022-08-25T05:39:13.302Z,14.30
2022-08-25T05:41:40.661Z,14.30
2022-08-25T05:44:07.902Z,14.30
2022-08-25T05:46:34.767Z,14.30
2022-08-25T05:49:01.990Z,14.30
2022-08-25T05:51:28.957Z,14.30
2022-08-25T05:53:56.006Z,14.30
2022-08-25T05:56:22.968Z,14.40
2022-08-25T05:58:50.353Z,14.40
2022-08-25T06:01:46.755Z,14.40
2022-08-25T06:04:16.494Z,14.40
2022-08-25T06:06:43.693Z,14.40
2022-08-25T06:09:10.756Z,14.50
2022-08-25T06:11:40.126Z,14.50
2022-08-25T06:14:08.845Z,14.60
2022-08-25T06:16:36.259Z,14.70
2022-08-25T06:19:04.797Z,14.80
2022-08-25T06:21:32.017Z,14.80
2022-08-25T06:23:59.066Z,14.80
2022-08-25T06:26:26.039Z,14.80
2022-08-25T06:28:53.272Z,14.70
2022-08-25T06:31:22.436Z,14.70
2022-08-25T06:33:50.714Z,14.70
2022-08-25T06:36:17.688Z,14.70
2022-08-25T06:38:44.714Z,14.80
2022-08-25T06:41:12.382Z,14.80
2022-08-25T06:43:44.985Z,14.90
2022-08-25T06:46:19.318Z,14.90
2022-08-25T06:48:46.255Z,14.90
2022-08-25T06:51:15.989Z,15.00
2022-08-25T06:53:45.066Z,15.10
2022-08-25T06:56:12.633Z,15.10
2022-08-25T06:58:39.895Z,15.20
2022-08-25T07:01:19.681Z,15.20
2022-08-25T07:03:48.334Z,15.30
2022-08-25T07:06:18.618Z,15.30
2022-08-25T07:08:47.298Z,15.30
2022-08-25T07:11:16.636Z,15.40
2022-08-25T07:13:45.368Z,15.50
2022-08-25T07:16:12.784Z,15.60
2022-08-25T07:18:39.698Z,15.70
2022-08-25T07:21:08.907Z,15.80
2022-08-25T07:23:36.641Z,15.90
2022-08-25T07:26:38.302Z,16.10
2022-08-25T07:29:12.753Z,16.20
2022-08-25T07:31:40.270Z,16.40
2022-08-25T07:34:27.300Z,16.50
2022-08-25T07:36:56.583Z,16.60
2022-08-25T07:39:23.929Z,16.70
2022-08-25T07:41:52.377Z,16.90
2022-08-25T07:44:21.845Z,17.00
2022-08-25T07:46:50.545Z,17.20
2022-08-25T07:52:06.909Z,17.50
2022-08-25T07:54:37.834Z,17.60
2022-08-25T07:57:07.819Z,17.60
2022-08-25T07:59:39.650Z,17.60
2022-08-25T08:02:18.942Z,17.60
2022-08-25T08:04:51.421Z,17.70
2022-08-25T08:07:42.168Z,17.90
2022-08-25T08:13:01.769Z,18.10
2022-08-25T08:15:29.887Z,18.30
2022-08-25T08:17:58.051Z,18.40
2022-08-25T08:20:26.555Z,18.40
2022-08-25T08:22:53.585Z,18.50
2022-08-25T08:25:21.320Z,18.50
2022-08-25T08:27:55.107Z,18.40
2022-08-25T08:30:25.844Z,18.40
2022-08-25T08:33:09.218Z,18.40
2022-08-25T08:35:36.994Z,18.40
2022-08-25T08:38:06.910Z,18.50
2022-08-25T08:41:09.597Z,18.60
2022-08-25T08:43:37.333Z,18.70
2022-08-25T08:46:07.506Z,18.80
2022-08-25T08:49:01.899Z,18.90
2022-08-25T08:51:54.907Z,19.00
2022-08-25T08:54:25.431Z,19.20
2022-08-25T08:57:19.675Z,19.30
2022-08-25T08:59:52.183Z,19.50
2022-08-25T09:02:51.476Z,19.60
2022-08-25T09:05:21.317Z,19.70
2022-08-25T09:08:14.690Z,19.80
2022-08-25T09:10:56.353Z,19.80
2022-08-25T09:13:54.220Z,19.80
2022-08-25T09:16:45.816Z,19.80
2022-08-25T09:19:24.578Z,19.80
2022-08-25T09:22:35.568Z,19.90
2022-08-25T09:25:11.060Z,20.00
2022-08-25T09:27:47.001Z,20.20
2022-08-25T09:30:19.351Z,20.30
2022-08-25T09:32:52.587Z,20.40
2022-08-25T09:35:33.168Z,20.40
2022-08-25T09:38:11.211Z,20.50
2022-08-25T09:40:50.723Z,20.70
2022-08-25T09:43:28.807Z,20.60
2022-08-25T09:46:09.193Z,20.60
2022-08-25T09:48:45.210Z,20.60
2022-08-25T09:51:15.157Z,20.70
2022-08-25T09:54:13.201Z,20.80
2022-08-25T09:56:52.056Z,20.90
2022-08-25T09:59:21.522Z,21.00
2022-08-25T10:02:04.734Z,21.20
2022-08-25T10:04:33.521Z,21.30
2022-08-25T10:07:04.026Z,21.40
2022-08-25T10:09:42.627Z,21.60
2022-08-25T10:12:27.913Z,21.80
2022-08-25T10:14:55.139Z,21.90
2022-08-25T10:17:33.494Z,22.00
2022-08-25T10:20:20.364Z,22.20
2022-08-25T10:22:50.608Z,22.50
2022-08-25T10:25:26.895Z,22.60
2022-08-25T10:28:02.868Z,22.60
2022-08-25T10:31:04.391Z,22.50
2022-08-25T10:33:45.515Z,22.40
2022-08-25T10:36:26.848Z,22.50
2022-08-25T10:39:02.062Z,22.50
2022-08-25T10:41:40.434Z,22.70
2022-08-25T10:44:40.840Z,22.90
2022-08-25T10:47:20.914Z,23.10
2022-08-25T10:50:10.333Z,23.40
2022-08-25T10:53:21.907Z,23.40
2022-08-25T10:56:07.570Z,23.70
2022-08-25T10:59:26.781Z,23.80
2022-08-25T11:02:31.139Z,24.00
2022-08-25T11:05:33.107Z,24.10
2022-08-25T11:08:25.923Z,24.20
2022-08-25T11:11:24.246Z,24.20
2022-08-25T11:13:56.650Z,24.30
2022-08-25T11:16:34.133Z,24.40
2022-08-25T11:19:26.870Z,24.50
2022-08-25T11:22:19.305Z,24.50
2022-08-25T11:25:03.960Z,24.60
2022-08-25T11:28:14.788Z,24.60
2022-08-25T11:30:42.216Z,24.60
2022-08-25T11:33:17.650Z,24.70
2022-08-25T11:36:05.017Z,24.80
2022-08-25T11:38:47.983Z,24.80
2022-08-25T11:41:42.737Z,24.80
2022-08-25T11:44:39.536Z,24.80
2022-08-25T11:47:33.585Z,24.80
2022-08-25T11:50:23.647Z,24.80
2022-08-25T11:53:16.660Z,24.80
2022-08-25T11:55:43.664Z,24.80
2022-08-25T11:58:37.449Z,24.70
2022-08-25T12:01:08.546Z,24.50
2022-08-25T12:03:35.516Z,24.30
2022-08-25T12:06:28.098Z,24.10
2022-08-25T12:08:57.682Z,23.90
2022-08-25T12:11:44.292Z,23.90
2022-08-25T12:14:37.103Z,23.90
2022-08-25T12:17:19.851Z,24.10
2022-08-25T12:19:49.275Z,24.40
2022-08-25T12:22:16.186Z,24.70
2022-08-25T12:24:48.020Z,25.10
2022-08-25T12:27:40.391Z,25.30
2022-08-25T12:30:26.158Z,25.50
2022-08-25T12:33:09.219Z,25.30
2022-08-25T12:35:58.500Z,25.30
2022-08-25T12:38:37.043Z,25.30
2022-08-25T12:41:08.906Z,25.40
2022-08-25T12:43:38.701Z,25.60
2022-08-25T12:46:36.522Z,25.70
2022-08-25T12:49:03.731Z,25.80
2022-08-25T12:51:33.572Z,26.00
2022-08-25T12:54:19.036Z,26.20
2022-08-25T12:57:03.122Z,26.30
2022-08-25T12:59:37.315Z,26.10
2022-08-25T13:02:19.039Z,25.80
2022-08-25T13:05:00.871Z,25.50
2022-08-25T13:07:58.446Z,25.30
2022-08-25T13:10:46.081Z,25.40
2022-08-25T13:13:23.953Z,25.40
2022-08-25T13:16:05.022Z,25.50
2022-08-25T13:18:34.850Z,25.60
2022-08-25T13:21:18.402Z,25.70
2022-08-25T13:24:01.249Z,25.90
2022-08-25T13:26:48.393Z,26.20
2022-08-25T13:29:28.191Z,26.40
2022-08-25T13:32:09.362Z,26.30
2022-08-25T13:34:42.902Z,26.30
2022-08-25T13:37:29.637Z,26.30
2022-08-25T13:40:17.565Z,26.30
2022-08-25T13:42:54.408Z,26.40
2022-08-25T13:45:28.917Z,26.50
2022-08-25T13:47:59.533Z,26.50
2022-08-25T13:50:27.041Z,26.50
2022-08-25T13:53:04.229Z,26.50
2022-08-25T13:55:54.835Z,26.50
2022-08-25T13:58:39.033Z,26.50
2022-08-25T14:01:48.154Z,26.60
2022-08-25T14:04:32.597Z,26.70
2022-08-25T14:07:15.394Z,26.80
2022-08-25T14:09:54.576Z,26.80
2022-08-25T14:12:33.233Z,26.70
2022-08-25T14:15:09.421Z,26.80
2022-08-25T14:17:40.227Z,26.80
2022-08-25T14:20:22.054Z,26.90
2022-08-25T14:22:55.439Z,26.90
2022-08-25T14:25:26.857Z,26.90
2022-08-25T14:28:25.512Z,26.90
2022-08-25T14:30:53.904Z,26.50
2022-08-25T14:33:25.107Z,26.30
2022-08-25T14:35:54.435Z,26.20
2022-08-25T14:38:22.555Z,26.10
2022-08-25T14:40:50.309Z,26.10
2022-08-25T14:43:17.805Z,26.00
2022-08-25T14:45:48.912Z,26.10
2022-08-25T14:48:42.611Z,26.10
2022-08-25T14:51:12.864Z,26.10
2022-08-25T14:53:40.948Z,26.20
2022-08-25T14:56:09.190Z,26.30
2022-08-25T14:58:51.123Z,26.10
2022-08-25T15:01:28.445Z,26.00
2022-08-25T15:04:08.302Z,25.90
2022-08-25T15:06:36.711Z,25.80
2022-08-25T15:09:08.454Z,25.80
2022-08-25T15:11:36.799Z,25.70
2022-08-25T15:14:10.723Z,25.70
2022-08-25T15:16:42.098Z,25.60
2022-08-25T15:19:11.785Z,25.60
2022-08-25T15:21:39.470Z,25.60
2022-08-25T15:24:08.625Z,25.60
2022-08-25T15:26:56.871Z,25.60
2022-08-25T15:29:26.271Z,25.60
2022-08-25T15:31:53.592Z,25.40
2022-08-25T15:34:20.454Z,25.30
2022-08-25T15:36:47.890Z,25.30
2022-08-25T15:39:15.938Z,25.30
2022-08-25T15:41:49.310Z,25.40
2022-08-25T15:44:16.787Z,25.40
2022-08-25T15:46:47.191Z,25.60
2022-08-25T15:49:20.718Z,25.60
2022-08-25T15:51:54.659Z,25.60
2022-08-25T15:54:23.852Z,25.60
2022-08-25T15:56:55.231Z,25.60
2022-08-25T15:59:22.768Z,25.60
2022-08-25T16:01:55.281Z,25.60
2022-08-25T16:04:24.501Z,25.60
2022-08-25T16:06:52.039Z,25.60
2022-08-25T16:09:23.129Z,25.50
2022-08-25T16:11:56.735Z,25.50
2022-08-25T16:14:27.681Z,25.40
2022-08-25T16:16:58.286Z,25.40
2022-08-25T16:19:26.029Z,25.30
2022-08-25T16:21:52.946Z,25.20
2022-08-25T16:24:20.267Z,25.10
2022-08-25T16:26:48.419Z,25.00
2022-08-25T16:29:17.347Z,25.00
2022-08-25T16:31:45.328Z,25.00
2022-08-25T16:34:20.530Z,25.00
2022-08-25T16:36:47.460Z,25.00
2022-08-25T16:39:19.450Z,24.90
2022-08-25T16:41:47.820Z,24.90
2022-08-25T16:44:14.664Z,24.90
2022-08-25T16:46:44.411Z,24.90
2022-08-25T16:49:14.169Z,24.90
2022-08-25T16:51:43.269Z,24.90
2022-08-25T16:54:29.906Z,24.80
2022-08-25T16:56:57.897Z,24.80
2022-08-25T16:59:25.498Z,24.80
2022-08-25T17:01:53.188Z,24.70
2022-08-25T17:04:20.898Z,24.70
2022-08-25T17:06:56.403Z,24.70
2022-08-25T17:09:24.222Z,24.60
2022-08-25T17:11:54.160Z,24.50
2022-08-25T17:14:22.253Z,24.50
2022-08-25T17:16:51.206Z,24.50
2022-08-25T17:19:18.810Z,24.50
2022-08-25T17:21:49.979Z,24.30
2022-08-25T17:24:17.728Z,24.20
2022-08-25T17:26:47.188Z,24.20
2022-08-25T17:29:14.103Z,24.00
2022-08-25T17:31:43.936Z,24.00
2022-08-25T17:34:16.146Z,24.00
2022-08-25T17:36:45.241Z,23.90
2022-08-25T17:39:14.387Z,23.80
2022-08-25T17:41:43.907Z,23.80
2022-08-25T17:44:11.975Z,23.70
2022-08-25T17:46:44.200Z,23.60
2022-08-25T17:49:15.563Z,23.50
2022-08-25T17:51:42.682Z,23.50
2022-08-25T17:54:10.047Z,23.40
2022-08-25T17:56:38.258Z,23.30
2022-08-25T17:59:06.377Z,23.20
2022-08-25T18:01:36.789Z,23.10
2022-08-25T18:04:16.896Z,23.00
2022-08-25T18:06:49.531Z,22.90
2022-08-25T18:09:17.648Z,22.80
2022-08-25T18:11:44.765Z,22.80
2022-08-25T18:14:12.104Z,22.70
2022-08-25T18:16:39.479Z,22.60
2022-08-25T18:19:09.626Z,22.50
2022-08-25T18:21:37.356Z,22.40
2022-08-25T18:24:05.426Z,22.30
2022-08-25T18:26:32.329Z,22.20
2022-08-25T18:28:59.407Z,22.10
2022-08-25T18:31:26.547Z,21.90
2022-08-25T18:33:53.580Z,21.80
2022-08-25T18:36:21.106Z,21.70
2022-08-25T18:39:07.977Z,21.50
2022-08-25T18:41:42.596Z,21.30
2022-08-25T18:44:11.044Z,21.10
2022-08-25T18:46:39.788Z,20.90
2022-08-25T18:49:06.807Z,20.80
2022-08-25T18:51:36.145Z,20.60
2022-08-25T18:54:04.070Z,20.50
2022-08-25T18:56:30.910Z,20.40
2022-08-25T18:58:58.045Z,20.30
2022-08-25T19:01:25.067Z,20.20
2022-08-25T19:03:52.090Z,20.00
2022-08-25T19:06:20.203Z,19.90
2022-08-25T19:08:48.204Z,19.80
2022-08-25T19:11:16.403Z,19.70
2022-08-25T19:13:43.328Z,19.50
2022-08-25T19:16:17.536Z,19.40
2022-08-25T19:18:47.243Z,19.30
2022-08-25T19:21:14.696Z,19.30
2022-08-25T19:23:41.557Z,19.20
2022-08-25T19:26:13.774Z,19.10
2022-08-25T19:28:45.682Z,19.00
2022-08-25T19:31:16.843Z,18.90
2022-08-25T19:33:47.230Z,18.90
2022-08-25T19:36:15.502Z,18.90
2022-08-25T19:38:44.026Z,18.90
2022-08-25T19:41:14.563Z,18.80
2022-08-25T19:43:56.684Z,18.70
2022-08-25T19:46:35.303Z,18.60
2022-08-25T19:49:18.737Z,18.60
2022-08-25T19:51:51.154Z,18.50
2022-08-25T19:54:22.518Z,18.40
2022-08-25T19:56:54.693Z,18.30
2022-08-25T19:59:25.858Z,18.20
2022-08-25T20:01:53.528Z,18.20
2022-08-25T20:04:21.049Z,18.10
2022-08-25T20:06:51.470Z,18.10
2022-08-25T20:09:35.787Z,18.10
2022-08-25T20:12:06.546Z,17.90
2022-08-25T20:14:34.033Z,17.90
2022-08-25T20:17:02.283Z,17.90
2022-08-25T20:19:31.185Z,17.90
2022-08-25T20:21:58.946Z,17.90
2022-08-25T20:24:44.366Z,17.90
2022-08-25T20:27:11.946Z,17.80
2022-08-25T20:29:38.910Z,17.80
2022-08-25T20:32:06.131Z,17.60
2022-08-25T20:34:33.792Z,17.50
2022-08-25T20:37:01.031Z,17.40
2022-08-25T20:39:27.949Z,17.40
2022-08-25T20:41:54.939Z,17.30
2022-08-25T20:44:23.340Z,17.30
2022-08-25T20:46:51.524Z,17.30
2022-08-25T20:49:20.247Z,17.30
2022-08-25T20:51:47.145Z,17.30
2022-08-25T20:54:17.628Z,17.30
2022-08-25T20:56:44.580Z,17.30
2022-08-25T20:59:11.605Z,17.30
2022-08-25T21:01:39.726Z,17.30
2022-08-25T21:04:15.372Z,17.30
2022-08-25T21:06:44.456Z,17.20
2022-08-25T21:09:15.655Z,17.10
2022-08-25T21:11:43.767Z,17.10
2022-08-25T21:14:12.790Z,17.10
2022-08-25T21:16:40.931Z,17.00
2022-08-25T21:19:11.080Z,16.90
2022-08-25T21:21:39.080Z,16.90
2022-08-25T21:24:10.287Z,16.80
2022-08-25T21:26:48.598Z,16.90
2022-08-25T21:29:20.467Z,16.80
2022-08-25T21:31:50.648Z,16.70
2022-08-25T21:34:18.685Z,16.60
2022-08-25T21:36:46.614Z,16.60
2022-08-25T21:39:14.514Z,16.60
2022-08-25T21:41:44.146Z,16.60
2022-08-25T21:44:13.048Z,16.50
2022-08-25T21:46:41.406Z,16.50
2022-08-25T21:49:11.270Z,16.50
2022-08-25T21:51:43.956Z,16.40
2022-08-25T21:54:16.134Z,16.40
2022-08-25T21:56:51.399Z,16.30
2022-08-25T21:59:21.627Z,16.30
2022-08-25T22:01:48.783Z,16.20
2022-08-25T22:04:15.631Z,16.10
2022-08-25T22:06:42.713Z,16.00
2022-08-25T22:09:13.097Z,15.90
2022-08-25T22:11:42.724Z,15.90
2022-08-25T22:14:10.982Z,15.90
2022-08-25T22:16:39.082Z,15.90
2022-08-25T22:19:06.679Z,15.90
2022-08-25T22:21:34.587Z,15.80
2022-08-25T22:24:01.733Z,15.70
2022-08-25T22:26:32.169Z,15.60
2022-08-25T22:29:00.207Z,15.50
2022-08-25T22:31:27.913Z,15.40
2022-08-25T22:33:55.887Z,15.30
2022-08-25T22:36:29.537Z,15.20
2022-08-25T22:38:57.175Z,15.10
2022-08-25T22:41:26.078Z,15.10
2022-08-25T22:43:56.664Z,15.10
2022-08-25T22:46:27.938Z,15.10
2022-08-25T22:48:56.482Z,15.10
2022-08-25T22:51:26.267Z,15.10
2022-08-25T22:53:53.985Z,15.10
2022-08-25T22:56:34.355Z,15.00
2022-08-25T22:59:09.639Z,15.00
2022-08-25T23:01:37.012Z,14.90
2022-08-25T23:04:05.464Z,14.80
2022-08-25T23:06:34.382Z,14.70
2022-08-25T23:09:02.666Z,14.80
2022-08-25T23:11:29.569Z,14.70
2022-08-25T23:14:00.493Z,14.70
2022-08-25T23:16:28.461Z,14.70
2022-08-25T23:18:55.516Z,14.70
2022-08-25T23:21:42.529Z,14.60
2022-08-25T23:24:11.340Z,14.60
2022-08-25T23:26:42.709Z,14.50
2022-08-25T23:29:18.655Z,14.50
2022-08-25T23:31:47.657Z,14.60
2022-08-25T23:34:16.499Z,14.50
2022-08-25T23:36:44.029Z,14.50
2022-08-25T23:39:11.519Z,14.40
2022-08-25T23:41:38.637Z,14.40
2022-08-25T23:44:06.494Z,14.40
2022-08-25T23:46:36.352Z,14.40
2022-08-25T23:49:05.597Z,14.40
2022-08-25T23:51:37.158Z,14.50
2022-08-25T23:54:09.157Z,14.40
2022-08-25T23:56:37.746Z,14.30
2022-08-25T23:59:14.315Z,14.30
